Time,TemperatureF,DewpointF,PressureIn,WindDirection,WindDirectionDegrees,WindSpeedMPH,WindSpeedGustMPH,Humidity,HourlyPrecipIn,Conditions,Clouds,dailyrainin,SoftwareType,DateUTC
2013-09-30 00:01:00,57.8,51.3,29.94,NE,46,4.6,4.8,79,0.00,CLR,,0.18,WeatherDisplay:10.37,2013-09-30 05:01:00,
2013-09-30 00:06:00,57.7,51.6,29.94,NE,44,5.0,5.0,80,0.00,CLR,,0.18,WeatherDisplay:10.37,2013-09-30 05:06:00,
2013-09-30 00:11:00,57.7,51.6,29.94,NE,44,8.1,8.1,80,0.00,CLR,,0.18,WeatherDisplay:10.37,2013-09-30 05:11:00,
2013-09-30 00:16:00,57.6,51.5,29.94,NE,44,8.1,8.1,80,0.00,CLR,,0.18,WeatherDisplay:10.37,2013-09-30 05:16:00,
2013-09-30 00:21:00,57.6,51.5,29.94,NE,44,5.8,5.8,80,0.00,CLR,,0.18,WeatherDisplay:10.37,2013-09-30 05:21:00,
2013-09-30 00:26:00,57.5,51.4,29.94,NE,44,4.0,4.0,80,0.00,CLR,,0.18,WeatherDisplay:10.37,2013-09-30 05:26:00,
2013-09-30 00:31:00,57.3,51.5,29.94,NE,44,3.5,3.5,81,0.00,CLR,,0.18,WeatherDisplay:10.37,2013-09-30 05:31:00,
2013-09-30 00:36:00,57.3,51.5,29.94,NE,44,4.6,4.6,81,0.00,CLR,,0.18,WeatherDisplay:10.37,2013-09-30 05:36:00,
2013-09-30 00:41:00,57.1,51.3,29.94,NE,44,4.6,4.6,81,0.00,CLR,,0.18,WeatherDisplay:10.37,2013-09-30 05:41:00,
2013-09-30 00:46:00,56.9,51.1,29.94,NE,43,4.6,4.6,81,0.00,CLR,,0.18,WeatherDisplay:10.37,2013-09-30 05:46:00,
2013-09-30 00:51:00,56.8,51.4,29.94,NE,44,4.6,4.6,82,0.00,CLR,,0.18,WeatherDisplay:10.37,2013-09-30 05:51:00,
2013-09-30 00:56:00,56.6,51.2,29.94,NE,44,4.6,4.6,82,0.00,CLR,,0.18,WeatherDisplay:10.37,2013-09-30 05:56:00,
2013-09-30 01:01:00,56.4,51.0,29.94,NE,44,4.0,4.0,82,0.00,RA,,0.00,WeatherDisplay:10.37,2013-09-30 06:01:00,
2013-09-30 01:06:00,56.2,50.8,29.94,NE,44,4.6,4.6,82,0.00,RA,,0.00,WeatherDisplay:10.37,2013-09-30 06:06:00,
2013-09-30 01:11:00,56.0,50.9,29.94,NE,44,3.5,3.5,83,0.00,CLR,,0.00,WeatherDisplay:10.37,2013-09-30 06:11:00,
2013-09-30 01:16:00,55.8,50.7,29.94,NE,44,3.5,3.5,83,0.00,CLR,,0.00,WeatherDisplay:10.37,2013-09-30 06:16:00,
2013-09-30 01:21:00,55.6,50.5,29.94,NE,44,3.5,3.5,83,0.00,CLR,,0.00,WeatherDisplay:10.37,2013-09-30 06:21:00,
2013-09-30 01:26:00,55.5,50.7,29.94,NE,44,3.5,3.5,84,0.00,CLR,,0.00,WeatherDisplay:10.37,2013-09-30 06:26:00,
2013-09-30 01:31:00,55.5,50.7,29.94,NE,44,3.5,3.5,84,0.00,CLR,,0.00,WeatherDisplay:10.37,2013-09-30 06:31:00,
2013-09-30 01:36:00,55.3,50.5,29.94,NE,44,3.5,3.5,84,0.00,CLR,,0.00,WeatherDisplay:10.37,2013-09-30 06:36:00,
2013-09-30 01:41:00,55.2,50.4,29.94,NE,44,4.6,4.6,84,0.00,CLR,,0.00,WeatherDisplay:10.37,2013-09-30 06:41:00,
2013-09-30 01:47:00,55.1,50.4,29.94,NE,44,3.5,3.5,84,0.00,CLR,,0.00,WeatherDisplay:10.37,2013-09-30 06:47:00,
2013-09-30 01:52:00,54.9,50.2,29.94,NE,44,3.5,3.5,84,0.00,CLR,,0.00,WeatherDisplay:10.37,2013-09-30 06:52:00,
2013-09-30 01:57:00,54.8,50.4,29.93,NE,44,3.5,3.5,85,0.00,CLR,,0.00,WeatherDisplay:10.37,2013-09-30 06:57:00,
2013-09-30 02:02:00,54.7,50.3,29.93,NE,44,3.5,3.5,85,0.00,CLR,,0.00,WeatherDisplay:10.37,2013-09-30 07:02:00,
2013-09-30 02:07:00,54.7,50.3,29.93,NE,44,3.5,3.5,85,0.00,CLR,,0.00,WeatherDisplay:10.37,2013-09-30 07:07:00,
2013-09-30 02:12:00,54.6,50.2,29.93,NE,44,2.3,2.3,85,0.00,CLR,,0.00,WeatherDisplay:10.37,2013-09-30 07:12:00,
2013-09-30 02:17:00,54.5,50.1,29.93,NE,44,2.3,2.3,85,0.00,CLR,,0.00,WeatherDisplay:10.37,2013-09-30 07:17:00,
2013-09-30 02:22:00,54.5,50.1,29.93,NE,44,0.0,0.0,85,0.00,CLR,,0.00,WeatherDisplay:10.37,2013-09-30 07:22:00,
2013-09-30 02:27:00,54.4,50.0,29.93,NE,44,2.3,2.3,85,0.00,CLR,,0.00,WeatherDisplay:10.37,2013-09-30 07:27:00,
2013-09-30 02:32:00,54.3,49.9,29.93,NE,44,0.0,0.0,85,0.00,CLR,,0.00,WeatherDisplay:10.37,2013-09-30 07:32:00,
2013-09-30 02:37:00,54.2,49.8,29.93,NE,44,0.0,0.0,85,0.00,CLR,,0.00,WeatherDisplay:10.37,2013-09-30 07:37:00,
2013-09-30 02:42:00,54.1,50.0,29.93,NE,44,0.0,0.0,86,0.00,CLR,,0.00,WeatherDisplay:10.37,2013-09-30 07:42:00,
2013-09-30 02:47:00,54.0,49.9,29.93,NE,44,1.0,1.0,86,0.00,CLR,,0.00,WeatherDisplay:10.37,2013-09-30 07:47:00,
2013-09-30 02:52:00,54.0,49.9,29.93,NE,44,2.0,2.0,86,0.00,CLR,,0.00,WeatherDisplay:10.37,2013-09-30 07:52:00,
2013-09-30 02:57:00,53.9,49.8,29.93,NE,44,2.3,2.3,86,0.00,CLR,,0.00,WeatherDisplay:10.37,2013-09-30 07:57:00,
2013-09-30 03:02:00,53.9,49.8,29.93,NE,44,3.5,3.5,86,0.00,CLR,,0.00,WeatherDisplay:10.37,2013-09-30 08:02:00,
2013-09-30 03:07:00,53.8,49.7,29.93,NE,44,1.2,1.2,86,0.00,CLR,,0.00,WeatherDisplay:10.37,2013-09-30 08:07:00,
2013-09-30 03:12:00,53.7,49.6,29.92,NE,43,2.3,2.3,86,0.00,CLR,,0.00,WeatherDisplay:10.37,2013-09-30 08:12:00,
2013-09-30 03:17:00,53.6,49.5,29.92,NE,44,0.0,0.0,86,0.00,CLR,,0.00,WeatherDisplay:10.37,2013-09-30 08:17:00,
2013-09-30 03:22:00,53.5,49.4,29.92,NE,44,2.3,2.3,86,0.00,CLR,,0.00,WeatherDisplay:10.37,2013-09-30 08:22:00,
2013-09-30 03:27:00,53.4,49.6,29.92,NE,44,0.0,0.0,87,0.00,CLR,,0.00,WeatherDisplay:10.37,2013-09-30 08:27:00,
2013-09-30 03:32:00,53.3,49.5,29.92,NE,44,0.0,0.0,87,0.00,CLR,,0.00,WeatherDisplay:10.37,2013-09-30 08:32:00,
2013-09-30 03:37:00,53.2,49.4,29.93,NE,43,2.3,2.3,87,0.00,CLR,,0.00,WeatherDisplay:10.37,2013-09-30 08:37:00,
2013-09-30 03:42:00,53.2,49.4,29.92,NE,44,2.3,2.3,87,0.00,CLR,,0.00,WeatherDisplay:10.37,2013-09-30 08:42:00,
2013-09-30 03:47:00,53.1,49.6,29.92,NE,44,4.6,4.6,88,0.00,CLR,,0.00,WeatherDisplay:10.37,2013-09-30 08:47:00,
2013-09-30 03:52:00,52.8,49.3,29.92,NE,44,3.5,3.5,88,0.00,CLR,,0.00,WeatherDisplay:10.37,2013-09-30 08:52:00,
2013-09-30 03:57:00,52.6,49.4,29.92,NE,44,3.0,3.0,89,0.00,CLR,,0.00,WeatherDisplay:10.37,2013-09-30 08:57:00,
2013-09-30 04:02:00,52.6,49.4,29.92,NE,44,3.5,3.5,89,0.00,CLR,,0.00,WeatherDisplay:10.37,2013-09-30 09:02:00,
2013-09-30 04:07:00,52.4,49.3,29.92,NE,44,1.2,1.2,89,0.00,CLR,,0.00,WeatherDisplay:10.37,2013-09-30 09:07:00,
2013-09-30 04:12:00,52.1,49.0,29.92,NE,44,1.2,1.2,89,0.00,CLR,,0.00,WeatherDisplay:10.37,2013-09-30 09:12:00,
2013-09-30 04:17:00,52.0,48.9,29.92,NE,44,0.0,0.1,89,0.00,CLR,,0.00,WeatherDisplay:10.37,2013-09-30 09:17:00,
2013-09-30 04:22:00,52.0,49.2,29.92,NE,44,3.5,3.5,90,0.00,CLR,,0.00,WeatherDisplay:10.37,2013-09-30 09:22:00,
2013-09-30 04:27:00,52.1,49.3,29.92,NE,44,2.0,2.0,90,0.00,CLR,,0.00,WeatherDisplay:10.37,2013-09-30 09:27:00,
2013-09-30 04:32:00,52.1,49.3,29.92,NE,44,1.2,1.2,90,0.00,CLR,,0.00,WeatherDisplay:10.37,2013-09-30 09:32:00,
2013-09-30 04:37:00,52.1,49.6,29.92,NE,44,0.0,0.0,91,0.00,CLR,,0.00,WeatherDisplay:10.37,2013-09-30 09:37:00,
2013-09-30 04:42:00,52.1,49.6,29.92,NE,44,2.3,2.3,91,0.00,CLR,,0.00,WeatherDisplay:10.37,2013-09-30 09:42:00,
2013-09-30 04:47:00,52.2,49.7,29.93,NE,44,1.2,0.0,91,0.00,CLR,,0.00,WeatherDisplay:10.37,2013-09-30 09:47:00,
2013-09-30 04:52:00,52.3,49.8,29.93,NE,44,1.2,1.2,91,0.00,CLR,,0.00,WeatherDisplay:10.37,2013-09-30 09:52:00,
2013-09-30 04:57:00,52.4,49.8,29.93,NE,43,2.3,2.3,91,0.00,CLR,,0.00,WeatherDisplay:10.37,2013-09-30 09:57:00,
2013-09-30 05:02:00,52.5,50.2,29.92,NE,44,1.2,1.2,92,0.00,CLR,,0.00,WeatherDisplay:10.37,2013-09-30 10:02:00,
2013-09-30 05:07:00,52.7,50.4,29.92,NE,44,2.3,2.3,92,0.00,CLR,,0.00,WeatherDisplay:10.37,2013-09-30 10:07:00,
2013-09-30 05:12:00,52.8,50.5,29.93,NE,44,2.3,2.3,92,0.00,CLR,,0.00,WeatherDisplay:10.37,2013-09-30 10:12:00,
2013-09-30 05:17:00,52.9,50.6,29.93,NE,44,0.0,0.0,92,0.00,CLR,,0.00,WeatherDisplay:10.37,2013-09-30 10:17:00,
2013-09-30 05:22:00,53.0,50.7,29.93,NE,44,0.0,0.0,92,0.00,CLR,,0.00,WeatherDisplay:10.37,2013-09-30 10:22:00,
2013-09-30 05:27:00,53.1,50.8,29.93,NE,44,1.2,0.0,92,0.00,CLR,,0.00,WeatherDisplay:10.37,2013-09-30 10:27:00,
2013-09-30 05:32:00,53.3,51.0,29.93,NE,44,0.0,0.0,92,0.00,CLR,,0.00,WeatherDisplay:10.37,2013-09-30 10:32:00,
2013-09-30 05:37:00,53.5,51.2,29.93,NE,44,0.0,0.0,92,0.00,CLR,,0.00,WeatherDisplay:10.37,2013-09-30 10:37:00,
2013-09-30 05:42:00,53.6,51.3,29.94,NE,44,0.0,0.0,92,0.00,CLR,,0.00,WeatherDisplay:10.37,2013-09-30 10:42:00,
2013-09-30 05:47:00,53.7,51.7,29.94,NE,44,0.0,0.0,93,0.00,CLR,,0.00,WeatherDisplay:10.37,2013-09-30 10:47:00,
2013-09-30 05:52:00,53.9,51.9,29.94,NE,44,0.0,0.0,93,0.00,CLR,,0.00,WeatherDisplay:10.37,2013-09-30 10:52:00,
2013-09-30 05:57:00,54.1,52.1,29.94,NE,43,0.0,0.0,93,0.00,CLR,,0.00,WeatherDisplay:10.37,2013-09-30 10:57:00,
2013-09-30 06:02:00,54.2,52.2,29.94,NE,44,0.0,0.0,93,0.00,CLR,,0.00,WeatherDisplay:10.37,2013-09-30 11:02:00,
2013-09-30 06:07:00,54.4,52.4,29.94,NE,44,0.0,0.0,93,0.00,CLR,,0.00,WeatherDisplay:10.37,2013-09-30 11:07:00,
2013-09-30 06:12:00,54.6,52.6,29.94,NE,44,0.0,0.0,93,0.00,CLR,,0.00,WeatherDisplay:10.37,2013-09-30 11:12:00,
2013-09-30 06:17:00,54.7,52.7,29.94,NE,44,0.0,0.0,93,0.00,CLR,,0.00,WeatherDisplay:10.37,2013-09-30 11:17:00,
2013-09-30 06:22:00,54.9,52.9,29.94,NE,44,0.0,0.0,93,0.00,CLR,,0.00,WeatherDisplay:10.37,2013-09-30 11:22:00,
2013-09-30 06:27:00,55.1,53.1,29.95,NE,44,1.2,0.0,93,0.00,CLR,,0.00,WeatherDisplay:10.37,2013-09-30 11:27:00,
2013-09-30 06:33:00,55.1,53.1,29.95,NE,43,0.0,0.0,93,0.00,CLR,,0.00,WeatherDisplay:10.37,2013-09-30 11:33:00,
2013-09-30 06:38:00,55.3,53.3,29.95,NE,44,0.0,0.0,93,0.00,CLR,,0.00,WeatherDisplay:10.37,2013-09-30 11:38:00,
2013-09-30 06:43:00,55.3,53.3,29.95,NE,44,2.0,2.0,93,0.00,CLR,,0.00,WeatherDisplay:10.37,2013-09-30 11:43:00,
2013-09-30 06:48:00,55.3,53.3,29.95,NE,44,0.0,0.0,93,0.00,CLR,,0.00,WeatherDisplay:10.37,2013-09-30 11:48:00,
2013-09-30 06:53:00,55.4,53.4,29.95,NE,44,0.0,0.0,93,0.00,CLR,,0.00,WeatherDisplay:10.37,2013-09-30 11:53:00,
2013-09-30 06:58:00,55.5,53.5,29.95,NE,44,0.0,0.0,93,0.00,CLR,,0.00,WeatherDisplay:10.37,2013-09-30 11:58:00,
2013-09-30 07:03:00,55.7,53.7,29.95,NE,44,1.2,1.2,93,0.00,CLR,,0.00,WeatherDisplay:10.37,2013-09-30 12:03:00,
2013-09-30 07:08:00,55.8,53.8,29.96,NE,44,0.0,0.0,93,0.00,CLR,,0.00,WeatherDisplay:10.37,2013-09-30 12:08:00,
2013-09-30 07:13:00,56.0,54.0,29.96,NE,44,0.0,0.0,93,0.00,CLR,,0.00,WeatherDisplay:10.37,2013-09-30 12:13:00,
2013-09-30 07:18:00,56.2,54.2,29.96,NE,44,0.0,0.0,93,0.00,CLR,,0.00,WeatherDisplay:10.37,2013-09-30 12:18:00,
2013-09-30 07:23:00,56.3,54.3,29.96,NE,44,0.0,0.0,93,0.00,CLR,,0.00,WeatherDisplay:10.37,2013-09-30 12:23:00,
2013-09-30 07:28:00,56.3,54.3,29.96,NE,44,0.0,0.0,93,0.00,CLR,,0.00,WeatherDisplay:10.37,2013-09-30 12:28:00,
2013-09-30 07:33:00,56.4,54.4,29.96,NE,44,0.0,0.0,93,0.00,CLR,,0.00,WeatherDisplay:10.37,2013-09-30 12:33:00,
2013-09-30 07:38:00,56.4,54.4,29.96,NE,44,0.0,0.0,93,0.00,CLR,,0.00,WeatherDisplay:10.37,2013-09-30 12:38:00,
2013-09-30 07:43:00,56.6,54.6,29.96,NE,44,1.2,1.2,93,0.00,CLR,,0.00,WeatherDisplay:10.37,2013-09-30 12:43:00,
2013-09-30 07:48:00,56.9,54.9,29.96,NE,44,0.0,0.0,93,0.00,CLR,,0.00,WeatherDisplay:10.37,2013-09-30 12:48:00,
2013-09-30 07:53:00,57.1,55.1,29.96,NE,43,3.5,3.5,93,0.00,CLR,,0.00,WeatherDisplay:10.37,2013-09-30 12:53:00,
2013-09-30 07:58:00,57.2,55.5,29.96,NE,44,2.0,2.0,94,0.00,CLR,,0.00,WeatherDisplay:10.37,2013-09-30 12:58:00,
2013-09-30 08:03:00,57.3,55.3,29.96,NE,44,1.2,0.0,93,0.00,CLR,,0.00,WeatherDisplay:10.37,2013-09-30 13:03:00,
2013-09-30 08:08:00,57.4,55.4,29.96,NE,44,0.0,0.0,93,0.00,CLR,,0.00,WeatherDisplay:10.37,2013-09-30 13:08:00,
2013-09-30 08:13:00,57.5,55.5,29.96,NE,44,1.2,0.0,93,0.00,CLR,,0.00,WeatherDisplay:10.37,2013-09-30 13:13:00,
2013-09-30 08:18:00,57.6,55.6,29.96,NE,44,2.3,2.3,93,0.00,CLR,,0.00,WeatherDisplay:10.37,2013-09-30 13:18:00,
2013-09-30 08:23:00,57.7,55.7,29.95,NE,44,2.3,0.0,93,0.00,CLR,,0.00,WeatherDisplay:10.37,2013-09-30 13:23:00,
2013-09-30 08:28:00,57.8,55.8,29.95,NE,44,3.0,3.0,93,0.00,CLR,,0.00,WeatherDisplay:10.37,2013-09-30 13:28:00,
2013-09-30 08:33:00,57.8,55.8,29.95,NE,44,0.0,0.0,93,0.00,CLR,,0.00,WeatherDisplay:10.37,2013-09-30 13:33:00,
2013-09-30 08:38:00,58.0,56.0,29.95,NE,44,0.0,0.0,93,0.00,CLR,,0.00,WeatherDisplay:10.37,2013-09-30 13:38:00,
2013-09-30 08:43:00,58.3,56.3,29.95,NE,44,3.5,3.5,93,0.00,CLR,,0.00,WeatherDisplay:10.37,2013-09-30 13:43:00,
2013-09-30 08:48:00,58.4,56.4,29.95,NE,44,1.2,1.2,93,0.00,CLR,,0.00,WeatherDisplay:10.37,2013-09-30 13:48:00,
2013-09-30 08:53:00,58.4,56.4,29.95,NE,44,2.3,2.3,93,0.00,CLR,,0.00,WeatherDisplay:10.37,2013-09-30 13:53:00,
2013-09-30 08:58:00,58.4,56.4,29.96,NE,44,2.0,2.0,93,0.00,CLR,,0.00,WeatherDisplay:10.37,2013-09-30 13:58:00,
2013-09-30 09:03:00,58.4,56.4,29.95,NE,44,3.5,3.5,93,0.00,CLR,,0.00,WeatherDisplay:10.37,2013-09-30 14:03:00,
2013-09-30 09:08:00,58.4,56.4,29.95,NE,44,3.5,3.5,93,0.00,CLR,,0.00,WeatherDisplay:10.37,2013-09-30 14:08:00,
2013-09-30 09:13:00,58.5,56.5,29.95,NE,44,3.5,3.5,93,0.00,CLR,,0.00,WeatherDisplay:10.37,2013-09-30 14:13:00,
2013-09-30 09:18:00,58.6,56.6,29.96,NE,44,4.0,4.0,93,0.00,CLR,,0.00,WeatherDisplay:10.37,2013-09-30 14:18:00,
2013-09-30 09:23:00,58.7,56.7,29.96,East,79,4.6,5.1,93,0.00,CLR,,0.00,WeatherDisplay:10.37,2013-09-30 14:23:00,
2013-09-30 09:28:00,58.7,56.4,29.96,SSE,156,6.9,6.9,92,0.00,CLR,,0.00,WeatherDisplay:10.37,2013-09-30 14:28:00,
2013-09-30 09:33:00,58.8,56.5,29.96,South,172,6.9,6.9,92,0.00,CLR,,0.00,WeatherDisplay:10.37,2013-09-30 14:33:00,
2013-09-30 09:38:00,58.9,56.6,29.95,South,178,4.6,4.6,92,0.00,CLR,,0.00,WeatherDisplay:10.37,2013-09-30 14:38:00,
2013-09-30 09:43:00,59.1,56.8,29.95,South,180,5.8,5.8,92,0.00,CLR,,0.00,WeatherDisplay:10.37,2013-09-30 14:43:00,
2013-09-30 09:48:00,59.3,57.0,29.95,South,182,4.6,4.6,92,0.00,CLR,,0.00,WeatherDisplay:10.37,2013-09-30 14:48:00,
2013-09-30 09:53:00,59.4,56.8,29.95,South,178,5.8,5.8,91,0.00,CLR,,0.00,WeatherDisplay:10.37,2013-09-30 14:53:00,
2013-09-30 09:58:00,59.4,57.1,29.96,SSE,150,7.0,7.0,92,0.00,CLR,,0.00,WeatherDisplay:10.37,2013-09-30 14:58:00,
2013-09-30 10:03:00,59.4,56.8,29.95,SE,146,6.9,6.9,91,0.00,CLR,,0.00,WeatherDisplay:10.37,2013-09-30 15:03:00,
2013-09-30 10:08:00,59.4,57.1,29.95,SSE,153,5.8,5.8,92,0.00,CLR,,0.00,WeatherDisplay:10.37,2013-09-30 15:08:00,
2013-09-30 10:13:00,59.5,57.2,29.95,SSE,154,8.1,8.1,92,0.00,CLR,,0.00,WeatherDisplay:10.37,2013-09-30 15:13:00,
2013-09-30 10:18:00,59.6,57.0,29.95,South,190,10.4,10.4,91,0.00,CLR,,0.00,WeatherDisplay:10.37,2013-09-30 15:18:00,
2013-09-30 10:23:00,59.8,57.2,29.96,SSW,195,9.2,9.2,91,0.00,CLR,,0.00,WeatherDisplay:10.37,2013-09-30 15:23:00,
2013-09-30 10:28:00,59.9,57.3,29.95,SSE,167,11.5,11.5,91,0.00,CLR,,0.00,WeatherDisplay:10.37,2013-09-30 15:28:00,
2013-09-30 10:33:00,60.0,57.1,29.94,South,186,12.7,12.7,90,0.00,CLR,,0.00,WeatherDisplay:10.37,2013-09-30 15:33:00,
2013-09-30 10:38:00,60.1,57.2,29.94,SSW,210,10.4,10.4,90,0.00,CLR,,0.00,WeatherDisplay:10.37,2013-09-30 15:38:00,
2013-09-30 10:43:00,60.3,57.4,29.95,SSW,211,8.0,8.0,90,0.00,CLR,,0.00,WeatherDisplay:10.37,2013-09-30 15:43:00,
2013-09-30 10:48:00,60.2,56.9,29.95,SSW,212,11.5,11.5,89,0.00,CLR,,0.00,WeatherDisplay:10.37,2013-09-30 15:48:00,
2013-09-30 10:53:00,60.3,57.0,29.95,SSW,212,2.3,2.3,89,0.00,CLR,,0.00,WeatherDisplay:10.37,2013-09-30 15:53:00,
2013-09-30 10:58:00,60.7,57.4,29.96,SSW,212,2.3,2.3,89,0.00,CLR,,0.00,WeatherDisplay:10.37,2013-09-30 15:58:00,
2013-09-30 11:03:00,61.1,57.8,29.96,SW,218,5.8,5.8,89,0.00,CLR,,0.00,WeatherDisplay:10.37,2013-09-30 16:03:00,
2013-09-30 11:08:00,61.4,57.8,29.96,SW,219,3.5,3.5,88,0.00,CLR,,0.00,WeatherDisplay:10.37,2013-09-30 16:08:00,
2013-09-30 11:13:00,61.7,58.1,29.96,SW,223,4.6,4.6,88,0.00,CLR,,0.00,WeatherDisplay:10.37,2013-09-30 16:13:00,
2013-09-30 11:18:00,61.7,57.5,29.96,SW,219,5.8,5.8,86,0.00,CLR,,0.00,WeatherDisplay:10.37,2013-09-30 16:18:00,
2013-09-30 11:23:00,61.9,58.0,29.96,SW,233,4.6,4.6,87,0.00,CLR,,0.00,WeatherDisplay:10.37,2013-09-30 16:23:00,
2013-09-30 11:28:00,62.3,58.1,29.96,SW,229,4.6,4.6,86,0.00,CLR,,0.00,WeatherDisplay:10.37,2013-09-30 16:28:00,
2013-09-30 11:33:00,62.6,57.7,29.95,SSW,201,11.0,11.0,84,0.00,CLR,,0.00,WeatherDisplay:10.37,2013-09-30 16:33:00,
2013-09-30 11:38:00,62.2,57.0,29.95,SW,219,11.5,11.5,83,0.00,CLR,,0.00,WeatherDisplay:10.37,2013-09-30 16:38:00,
2013-09-30 11:43:00,62.4,57.5,29.95,SW,215,5.8,5.8,84,0.00,CLR,,0.00,WeatherDisplay:10.37,2013-09-30 16:43:00,
2013-09-30 11:48:00,63.0,57.8,29.94,SW,216,6.9,6.9,83,0.00,CLR,,0.00,WeatherDisplay:10.37,2013-09-30 16:48:00,
2013-09-30 11:53:00,63.8,58.2,29.94,SW,215,3.5,3.8,82,0.00,CLR,,0.00,WeatherDisplay:10.37,2013-09-30 16:53:00,
2013-09-30 11:58:00,64.4,58.4,29.94,SW,216,5.0,5.0,81,0.00,CLR,,0.00,WeatherDisplay:10.37,2013-09-30 16:58:00,
2013-09-30 12:03:00,64.9,58.6,29.94,SSW,203,11.5,11.5,80,0.00,CLR,,0.00,WeatherDisplay:10.37,2013-09-30 17:03:00,
2013-09-30 12:08:00,65.6,58.9,29.94,SW,221,4.6,4.6,79,0.00,CLR,,0.00,WeatherDisplay:10.37,2013-09-30 17:08:00,
2013-09-30 12:13:00,66.4,59.0,29.94,SW,215,6.9,6.9,77,0.00,CLR,,0.00,WeatherDisplay:10.37,2013-09-30 17:13:00,
2013-09-30 12:18:00,66.7,58.9,29.94,SW,223,5.8,5.8,76,0.00,CLR,,0.00,WeatherDisplay:10.37,2013-09-30 17:18:00,
2013-09-30 12:23:00,66.8,59.0,29.94,SW,230,4.6,4.6,76,0.00,CLR,,0.00,WeatherDisplay:10.37,2013-09-30 17:23:00,
2013-09-30 12:28:00,67.2,59.4,29.93,SW,229,3.5,3.5,76,0.00,CLR,,0.00,WeatherDisplay:10.37,2013-09-30 17:28:00,
2013-09-30 12:33:00,67.9,59.7,29.93,SW,229,3.0,3.0,75,0.00,CLR,,0.00,WeatherDisplay:10.37,2013-09-30 17:33:00,
2013-09-30 12:38:00,68.8,59.8,29.93,SW,219,11.5,11.5,73,0.00,CLR,,0.00,WeatherDisplay:10.37,2013-09-30 17:38:00,
2013-09-30 12:43:00,68.4,59.4,29.93,SSW,202,13.8,13.8,73,0.00,CLR,,0.00,WeatherDisplay:10.37,2013-09-30 17:43:00,
2013-09-30 12:48:00,68.1,59.5,29.92,South,183,12.7,12.7,74,0.00,CLR,,0.00,WeatherDisplay:10.37,2013-09-30 17:48:00,
2013-09-30 12:54:00,68.3,59.7,29.92,SSW,203,10.4,10.4,74,0.00,CLR,,0.00,WeatherDisplay:10.37,2013-09-30 17:54:00,
2013-09-30 12:59:00,68.7,60.1,29.92,SW,223,7.0,7.0,74,0.00,CLR,,0.00,WeatherDisplay:10.37,2013-09-30 17:59:00,
2013-09-30 13:04:00,69.1,59.7,29.92,SW,225,13.8,13.8,72,0.00,CLR,,0.00,WeatherDisplay:10.37,2013-09-30 18:04:00,
2013-09-30 13:09:00,69.1,59.7,29.91,SSW,205,12.7,12.7,72,0.00,CLR,,0.00,WeatherDisplay:10.37,2013-09-30 18:09:00,
2013-09-30 13:14:00,69.1,60.5,29.91,SSW,203,10.4,10.4,74,0.00,CLR,,0.00,WeatherDisplay:10.37,2013-09-30 18:14:00,
2013-09-30 13:19:00,69.1,59.3,29.91,SSW,209,11.5,11.5,71,0.00,CLR,,0.00,WeatherDisplay:10.37,2013-09-30 18:19:00,
2013-09-30 13:24:00,68.7,59.7,29.91,SSW,207,12.0,12.0,73,0.00,CLR,,0.00,WeatherDisplay:10.37,2013-09-30 18:24:00,
2013-09-30 13:29:00,68.7,59.7,29.91,SW,214,8.1,8.1,73,0.00,CLR,,0.00,WeatherDisplay:10.37,2013-09-30 18:29:00,
2013-09-30 13:34:00,68.8,59.4,29.90,SSW,207,6.9,6.9,72,0.00,CLR,,0.00,WeatherDisplay:10.37,2013-09-30 18:34:00,
2013-09-30 13:39:00,69.0,59.6,29.90,SSW,210,9.2,9.2,72,0.00,CLR,,0.00,WeatherDisplay:10.37,2013-09-30 18:39:00,
2013-09-30 13:44:00,69.8,60.0,29.90,South,184,14.0,14.0,71,0.00,CLR,,0.00,WeatherDisplay:10.37,2013-09-30 18:44:00,
2013-09-30 13:49:00,70.6,60.3,29.90,SW,232,13.8,13.8,70,0.00,CLR,,0.00,WeatherDisplay:10.37,2013-09-30 18:49:00,
2013-09-30 13:54:00,70.3,60.1,29.90,SSW,211,13.8,13.8,70,0.00,CLR,,0.00,WeatherDisplay:10.37,2013-09-30 18:54:00,
2013-09-30 13:59:00,70.6,60.3,29.90,SW,228,7.0,7.0,70,0.00,CLR,,0.00,WeatherDisplay:10.37,2013-09-30 18:59:00,
2013-09-30 14:04:00,71.4,60.3,29.89,SSW,206,11.5,11.5,68,0.00,CLR,,0.00,WeatherDisplay:10.37,2013-09-30 19:04:00,
2013-09-30 14:09:00,72.1,60.1,29.89,SSE,149,13.8,13.8,66,0.00,CLR,,0.00,WeatherDisplay:10.37,2013-09-30 19:09:00,
2013-09-30 14:14:00,72.8,60.3,29.89,SSW,211,14.0,14.0,65,0.00,CLR,,0.00,WeatherDisplay:10.37,2013-09-30 19:14:00,
2013-09-30 14:19:00,72.4,59.1,29.88,SW,226,16.1,16.1,63,0.00,CLR,,0.00,WeatherDisplay:10.37,2013-09-30 19:19:00,
2013-09-30 14:24:00,72.2,59.8,29.88,SSW,192,3.5,3.5,65,0.00,CLR,,0.00,WeatherDisplay:10.37,2013-09-30 19:24:00,
2013-09-30 14:29:00,72.0,60.0,29.88,SSW,203,6.9,6.9,66,0.00,CLR,,0.00,WeatherDisplay:10.37,2013-09-30 19:29:00,
2013-09-30 14:34:00,72.7,60.3,29.88,SSW,193,11.5,11.5,65,0.00,CLR,,0.00,WeatherDisplay:10.37,2013-09-30 19:34:00,
2013-09-30 14:39:00,72.5,59.6,29.88,SSW,211,7.0,15.0,64,0.00,CLR,,0.00,WeatherDisplay:10.37,2013-09-30 19:39:00,
2013-09-30 14:44:00,72.7,59.8,29.88,SW,234,11.5,11.5,64,0.00,CLR,,0.00,WeatherDisplay:10.37,2013-09-30 19:44:00,
2013-09-30 14:49:00,73.0,59.2,29.88,SSW,194,17.0,17.0,62,0.00,CLR,,0.00,WeatherDisplay:10.37,2013-09-30 19:49:00,
2013-09-30 14:54:00,72.3,59.0,29.87,SSW,201,16.1,16.1,63,0.00,CLR,,0.00,WeatherDisplay:10.37,2013-09-30 19:54:00,
2013-09-30 14:59:00,72.8,59.5,29.87,South,174,16.1,16.1,63,0.00,CLR,,0.00,WeatherDisplay:10.37,2013-09-30 19:59:00,
2013-09-30 15:05:00,73.1,59.3,29.87,SSW,210,16.1,16.1,62,0.00,CLR,,0.00,WeatherDisplay:10.37,2013-09-30 20:05:00,
2013-09-30 15:10:00,73.2,59.8,29.87,SSW,192,12.7,12.7,63,0.00,CLR,,0.00,WeatherDisplay:10.37,2013-09-30 20:10:00,
2013-09-30 15:15:00,73.2,59.8,29.87,SW,217,6.9,6.9,63,0.00,CLR,,0.00,WeatherDisplay:10.37,2013-09-30 20:15:00,
2013-09-30 15:20:00,73.6,60.2,29.87,SSW,210,4.6,4.6,63,0.00,CLR,,0.00,WeatherDisplay:10.37,2013-09-30 20:20:00,
2013-09-30 15:25:00,74.0,59.7,29.87,South,173,12.0,12.0,61,0.00,CLR,,0.00,WeatherDisplay:10.37,2013-09-30 20:25:00,
2013-09-30 15:30:00,73.8,60.0,29.87,SSW,202,3.5,3.5,62,0.00,CLR,,0.00,WeatherDisplay:10.37,2013-09-30 20:30:00,
2013-09-30 15:35:00,73.8,60.0,29.87,SSW,205,3.5,3.5,62,0.00,CLR,,0.00,WeatherDisplay:10.37,2013-09-30 20:35:00,
2013-09-30 15:40:00,74.0,60.2,29.87,South,180,9.0,9.0,62,0.00,CLR,,0.00,WeatherDisplay:10.37,2013-09-30 20:40:00,
2013-09-30 15:45:00,74.4,59.6,29.86,SSW,202,11.5,11.5,60,0.00,CLR,,0.00,WeatherDisplay:10.37,2013-09-30 20:45:00,
2013-09-30 15:50:00,75.1,59.8,29.86,SSE,164,12.7,12.7,59,0.00,CLR,,0.00,WeatherDisplay:10.37,2013-09-30 20:50:00,
2013-09-30 15:55:00,75.4,58.6,29.86,SSW,209,11.5,11.5,56,0.00,CLR,,0.00,WeatherDisplay:10.37,2013-09-30 20:55:00,
2013-09-30 16:00:00,75.8,59.0,29.86,SSW,210,4.6,4.6,56,0.00,CLR,,0.00,WeatherDisplay:10.37,2013-09-30 21:00:00,
2013-09-30 16:05:00,75.8,59.0,29.86,SSW,196,11.5,11.5,56,0.00,CLR,,0.00,WeatherDisplay:10.37,2013-09-30 21:05:00,
2013-09-30 16:10:00,75.6,57.8,29.86,SSW,202,17.3,17.3,54,0.00,CLR,,0.00,WeatherDisplay:10.37,2013-09-30 21:10:00,
2013-09-30 16:15:00,75.6,57.3,29.86,SSW,205,17.0,17.0,53,0.00,CLR,,0.00,WeatherDisplay:10.37,2013-09-30 21:15:00,
2013-09-30 16:20:00,75.3,57.5,29.86,SW,225,15.0,15.0,54,0.00,CLR,,0.00,WeatherDisplay:10.37,2013-09-30 21:20:00,
2013-09-30 16:25:00,75.4,58.1,29.86,SSW,202,10.4,10.4,55,0.00,CLR,,0.00,WeatherDisplay:10.37,2013-09-30 21:25:00,
2013-09-30 16:30:00,75.7,58.4,29.86,SSW,205,13.0,13.0,55,0.00,CLR,,0.00,WeatherDisplay:10.37,2013-09-30 21:30:00,
2013-09-30 16:35:00,75.7,58.9,29.86,SSE,168,11.5,11.5,56,0.00,CLR,,0.00,WeatherDisplay:10.37,2013-09-30 21:35:00,
2013-09-30 16:40:00,75.5,58.7,29.86,SW,217,11.5,11.5,56,0.00,CLR,,0.00,WeatherDisplay:10.37,2013-09-30 21:40:00,
2013-09-30 16:45:00,75.5,59.2,29.86,South,187,6.9,6.9,57,0.00,CLR,,0.00,WeatherDisplay:10.37,2013-09-30 21:45:00,
2013-09-30 16:50:00,75.6,58.8,29.86,SSW,209,6.0,6.0,56,0.00,CLR,,0.00,WeatherDisplay:10.37,2013-09-30 21:50:00,
2013-09-30 16:55:00,75.6,58.3,29.86,South,186,12.7,12.7,55,0.00,CLR,,0.00,WeatherDisplay:10.37,2013-09-30 21:55:00,
2013-09-30 17:00:00,75.6,58.8,29.86,South,186,13.8,13.8,56,0.00,CLR,,0.00,WeatherDisplay:10.37,2013-09-30 22:00:00,
2013-09-30 17:05:00,75.4,58.6,29.86,SSW,213,12.0,12.0,56,0.00,CLR,,0.00,WeatherDisplay:10.37,2013-09-30 22:05:00,
2013-09-30 17:10:00,75.2,58.4,29.86,SSW,211,10.4,10.4,56,0.00,CLR,,0.00,WeatherDisplay:10.37,2013-09-30 22:10:00,
2013-09-30 17:15:00,75.3,59.0,29.86,SSW,202,9.2,9.2,57,0.00,CLR,,0.00,WeatherDisplay:10.37,2013-09-30 22:15:00,
2013-09-30 17:20:00,75.3,59.0,29.86,SSE,163,8.1,8.1,57,0.00,CLR,,0.00,WeatherDisplay:10.37,2013-09-30 22:20:00,
2013-09-30 17:25:00,75.3,58.5,29.86,SSW,207,11.5,11.6,56,0.00,CLR,,0.00,WeatherDisplay:10.37,2013-09-30 22:25:00,
2013-09-30 17:30:00,75.1,58.3,29.86,SSW,199,11.5,11.5,56,0.00,CLR,,0.00,WeatherDisplay:10.37,2013-09-30 22:30:00,
2013-09-30 17:35:00,75.1,58.8,29.86,SSW,192,6.9,6.9,57,0.00,CLR,,0.00,WeatherDisplay:10.37,2013-09-30 22:35:00,
2013-09-30 17:40:00,74.8,58.1,29.86,SSW,213,18.4,18.4,56,0.00,CLR,,0.00,WeatherDisplay:10.37,2013-09-30 22:40:00,
2013-09-30 17:45:00,74.6,58.4,29.86,SSW,198,11.5,11.5,57,0.00,CLR,,0.00,WeatherDisplay:10.37,2013-09-30 22:45:00,
2013-09-30 17:50:00,74.4,58.2,29.86,SSW,193,11.5,11.5,57,0.00,CLR,,0.00,WeatherDisplay:10.37,2013-09-30 22:50:00,
2013-09-30 17:55:00,74.3,58.1,29.86,SSW,197,12.0,12.0,57,0.00,CLR,,0.00,WeatherDisplay:10.37,2013-09-30 22:55:00,
2013-09-30 18:00:00,74.2,58.5,29.86,South,184,11.5,11.5,58,0.00,CLR,,0.00,WeatherDisplay:10.37,2013-09-30 23:00:00,
2013-09-30 18:05:00,74.0,58.3,29.86,SSW,202,13.0,13.0,58,0.00,CLR,,0.00,WeatherDisplay:10.37,2013-09-30 23:05:00,
2013-09-30 18:10:00,73.9,58.7,29.86,SSW,209,10.4,10.4,59,0.00,CLR,,0.00,WeatherDisplay:10.37,2013-09-30 23:10:00,
2013-09-30 18:15:00,73.7,58.9,29.86,SSW,212,6.0,6.0,60,0.00,CLR,,0.00,WeatherDisplay:10.37,2013-09-30 23:15:00,
2013-09-30 18:20:00,73.5,58.8,29.86,SSW,204,8.1,8.1,60,0.00,CLR,,0.00,WeatherDisplay:10.37,2013-09-30 23:20:00,
2013-09-30 18:25:00,73.2,58.5,29.86,SSW,200,9.2,9.2,60,0.00,CLR,,0.00,WeatherDisplay:10.37,2013-09-30 23:25:00,
2013-09-30 18:30:00,72.9,59.1,29.87,SSW,201,11.5,11.5,62,0.00,CLR,,0.00,WeatherDisplay:10.37,2013-09-30 23:30:00,
2013-09-30 18:35:00,72.6,59.3,29.87,SSW,196,11.5,11.5,63,0.00,CLR,,0.00,WeatherDisplay:10.37,2013-09-30 23:35:00,
2013-09-30 18:40:00,72.2,59.3,29.87,SSW,198,7.0,7.7,64,0.00,CLR,,0.00,WeatherDisplay:10.37,2013-09-30 23:40:00,
2013-09-30 18:45:00,71.9,59.9,29.87,SSW,193,11.5,11.5,66,0.00,CLR,,0.00,WeatherDisplay:10.37,2013-09-30 23:45:00,
2013-09-30 18:50:00,71.6,60.1,29.87,SSW,192,16.0,16.0,67,0.00,CLR,,0.00,WeatherDisplay:10.37,2013-09-30 23:50:00,
2013-09-30 18:55:00,71.1,60.4,29.87,SSW,211,11.5,11.5,69,0.00,CLR,,0.00,WeatherDisplay:10.37,2013-09-30 23:55:00,
2013-09-30 19:00:00,70.7,60.4,29.87,SSW,206,12.7,12.7,70,0.00,CLR,,0.00,WeatherDisplay:10.37,2013-10-01 00:00:00,
2013-09-30 19:05:00,70.3,60.4,29.87,SW,219,11.5,11.5,71,0.00,CLR,,0.00,WeatherDisplay:10.37,2013-10-01 00:05:00,
2013-09-30 19:10:00,70.0,60.6,29.87,SSW,196,11.5,11.5,72,0.00,CLR,,0.00,WeatherDisplay:10.37,2013-10-01 00:10:00,
2013-09-30 19:15:00,69.7,60.7,29.87,SSW,207,11.5,11.5,73,0.00,CLR,,0.00,WeatherDisplay:10.37,2013-10-01 00:15:00,
2013-09-30 19:20:00,69.4,60.4,29.88,SSW,207,11.0,11.0,73,0.00,CLR,,0.00,WeatherDisplay:10.37,2013-10-01 00:20:00,
2013-09-30 19:25:00,69.2,60.6,29.88,SSW,207,10.4,10.4,74,0.00,CLR,,0.00,WeatherDisplay:10.37,2013-10-01 00:25:00,
2013-09-30 19:30:00,69.0,60.4,29.88,SSW,211,10.4,10.4,74,0.00,CLR,,0.00,WeatherDisplay:10.37,2013-10-01 00:30:00,
2013-09-30 19:35:00,68.8,60.6,29.88,SSW,208,6.9,6.9,75,0.00,CLR,,0.00,WeatherDisplay:10.37,2013-10-01 00:35:00,
2013-09-30 19:40:00,68.6,60.4,29.88,SSW,206,11.5,11.5,75,0.00,CLR,,0.00,WeatherDisplay:10.37,2013-10-01 00:40:00,
2013-09-30 19:45:00,68.4,60.5,29.88,SSW,201,6.9,6.9,76,0.00,CLR,,0.00,WeatherDisplay:10.37,2013-10-01 00:45:00,
2013-09-30 19:50:00,68.1,60.2,29.89,SSW,203,11.5,11.5,76,0.00,CLR,,0.00,WeatherDisplay:10.37,2013-10-01 00:50:00,
2013-09-30 19:55:00,67.9,60.4,29.89,SSW,202,10.4,10.4,77,0.00,CLR,,0.00,WeatherDisplay:10.37,2013-10-01 00:55:00,
2013-09-30 20:00:00,67.7,60.2,29.89,SSW,200,11.0,11.0,77,0.00,CLR,,0.00,WeatherDisplay:10.37,2013-10-01 01:00:00,
2013-09-30 20:05:00,67.7,60.2,29.89,SSW,198,11.5,11.5,77,0.00,CLR,,0.00,WeatherDisplay:10.37,2013-10-01 01:05:00,
2013-09-30 20:10:00,67.6,60.1,29.89,SSW,198,11.5,11.5,77,0.00,CLR,,0.00,WeatherDisplay:10.37,2013-10-01 01:10:00,
2013-09-30 20:15:00,67.5,60.4,29.89,SSW,194,11.5,11.5,78,0.00,CLR,,0.00,WeatherDisplay:10.37,2013-10-01 01:15:00,
2013-09-30 20:20:00,67.4,60.3,29.89,SSW,198,12.7,12.7,78,0.00,CLR,,0.00,WeatherDisplay:10.37,2013-10-01 01:20:00,
2013-09-30 20:25:00,67.2,60.1,29.89,South,188,11.5,11.5,78,0.00,CLR,,0.00,WeatherDisplay:10.37,2013-10-01 01:25:00,
2013-09-30 20:31:00,67.1,60.0,29.89,South,188,10.4,10.4,78,0.00,CLR,,0.00,WeatherDisplay:10.37,2013-10-01 01:31:00,
2013-09-30 20:36:00,67.0,60.3,29.89,South,184,12.7,12.7,79,0.00,CLR,,0.00,WeatherDisplay:10.37,2013-10-01 01:36:00,
2013-09-30 20:41:00,67.0,60.3,29.89,South,181,9.2,9.2,79,0.00,CLR,,0.00,WeatherDisplay:10.37,2013-10-01 01:41:00,
2013-09-30 20:46:00,66.9,60.2,29.90,South,182,6.9,6.9,79,0.00,CLR,,0.00,WeatherDisplay:10.37,2013-10-01 01:46:00,
2013-09-30 20:51:00,66.9,60.2,29.90,South,180,10.4,10.4,79,0.00,CLR,,0.00,WeatherDisplay:10.37,2013-10-01 01:51:00,
2013-09-30 20:56:00,66.8,60.1,29.90,South,181,6.9,6.9,79,0.00,CLR,,0.00,WeatherDisplay:10.37,2013-10-01 01:56:00,
2013-09-30 21:01:00,66.7,60.0,29.90,South,180,5.8,5.8,79,0.00,CLR,,0.00,WeatherDisplay:10.37,2013-10-01 02:01:00,
2013-09-30 21:06:00,66.5,60.1,29.90,South,179,7.0,7.0,80,0.00,CLR,,0.00,WeatherDisplay:10.37,2013-10-01 02:06:00,
2013-09-30 21:11:00,66.4,60.0,29.90,South,180,9.2,9.2,80,0.00,CLR,,0.00,WeatherDisplay:10.37,2013-10-01 02:11:00,
2013-09-30 21:16:00,66.2,60.2,29.90,South,178,9.2,9.2,81,0.00,CLR,,0.00,WeatherDisplay:10.37,2013-10-01 02:16:00,
2013-09-30 21:21:00,66.1,60.1,29.90,South,175,6.9,6.9,81,0.00,CLR,,0.00,WeatherDisplay:10.37,2013-10-01 02:21:00,
2013-09-30 21:26:00,65.9,60.2,29.90,South,178,10.4,10.4,82,0.00,CLR,,0.00,WeatherDisplay:10.37,2013-10-01 02:26:00,
2013-09-30 21:31:00,65.8,60.2,29.90,South,176,9.2,9.2,82,0.00,CLR,,0.00,WeatherDisplay:10.37,2013-10-01 02:31:00,
2013-09-30 21:36:00,65.6,60.0,29.90,South,177,8.1,8.1,82,0.00,CLR,,0.00,WeatherDisplay:10.37,2013-10-01 02:36:00,
2013-09-30 21:41:00,65.5,59.9,29.90,South,177,7.0,7.0,82,0.00,CLR,,0.00,WeatherDisplay:10.37,2013-10-01 02:41:00,
2013-09-30 21:46:00,65.4,60.1,29.90,South,174,10.4,10.4,83,0.00,CLR,,0.00,WeatherDisplay:10.37,2013-10-01 02:46:00,
2013-09-30 21:51:00,65.2,59.9,29.90,South,170,10.4,10.4,83,0.00,CLR,,0.00,WeatherDisplay:10.37,2013-10-01 02:51:00,
2013-09-30 21:56:00,65.0,60.0,29.90,South,173,9.0,9.0,84,0.00,CLR,,0.00,WeatherDisplay:10.37,2013-10-01 02:56:00,
2013-09-30 22:01:00,64.9,60.3,29.90,South,184,10.4,10.4,85,0.00,CLR,,0.00,WeatherDisplay:10.37,2013-10-01 03:01:00,
2013-09-30 22:06:00,64.9,60.3,29.90,South,181,11.5,11.5,85,0.00,CLR,,0.00,WeatherDisplay:10.37,2013-10-01 03:06:00,
2013-09-30 22:11:00,64.8,60.5,29.91,South,185,6.9,6.9,86,0.00,CLR,,0.00,WeatherDisplay:10.37,2013-10-01 03:11:00,
2013-09-30 22:16:00,64.7,60.4,29.91,South,181,10.4,10.4,86,0.00,CLR,,0.00,WeatherDisplay:10.37,2013-10-01 03:16:00,
2013-09-30 22:21:00,64.7,60.4,29.90,South,180,11.5,11.5,86,0.00,CLR,,0.00,WeatherDisplay:10.37,2013-10-01 03:21:00,
2013-09-30 22:26:00,64.6,60.3,29.90,South,173,11.5,11.5,86,0.00,CLR,,0.00,WeatherDisplay:10.37,2013-10-01 03:26:00,
2013-09-30 22:31:00,64.6,60.6,29.90,South,175,17.3,17.3,87,0.00,CLR,,0.00,WeatherDisplay:10.37,2013-10-01 03:31:00,
2013-09-30 22:36:00,64.6,60.6,29.90,South,186,13.8,13.8,87,0.00,CLR,,0.00,WeatherDisplay:10.37,2013-10-01 03:36:00,
2013-09-30 22:41:00,64.5,60.5,29.90,South,170,12.7,12.7,87,0.00,CLR,,0.00,WeatherDisplay:10.37,2013-10-01 03:41:00,
2013-09-30 22:46:00,64.4,60.8,29.90,South,185,12.7,12.7,88,0.00,CLR,,0.00,WeatherDisplay:10.37,2013-10-01 03:46:00,
2013-09-30 22:51:00,64.4,60.8,29.90,South,175,15.0,15.0,88,0.00,CLR,,0.00,WeatherDisplay:10.37,2013-10-01 03:51:00,
2013-09-30 22:56:00,64.3,60.7,29.90,SSW,196,12.7,12.7,88,0.00,CLR,,0.00,WeatherDisplay:10.37,2013-10-01 03:56:00,
2013-09-30 23:01:00,64.2,60.6,29.90,South,174,12.7,12.7,88,0.00,CLR,,0.00,WeatherDisplay:10.37,2013-10-01 04:01:00,
2013-09-30 23:02:00,64.2,60.6,29.90,South,171,11.5,11.5,88,0.00,CLR,,0.00,WeatherDisplay:10.37,2013-10-01 04:02:00,
2013-09-30 23:07:00,64.2,60.9,29.90,South,176,9.2,9.2,89,0.00,CLR,,0.00,WeatherDisplay:10.37,2013-10-01 04:07:00,
2013-09-30 23:12:00,64.1,60.8,29.90,South,184,11.5,11.5,89,0.00,CLR,,0.00,WeatherDisplay:10.37,2013-10-01 04:12:00,
2013-09-30 23:17:00,64.1,60.8,29.90,South,188,10.4,10.4,89,0.00,CLR,,0.00,WeatherDisplay:10.37,2013-10-01 04:17:00,
2013-09-30 23:22:00,64.1,61.1,29.90,South,188,11.5,11.5,90,0.00,CLR,,0.00,WeatherDisplay:10.37,2013-10-01 04:22:00,
2013-09-30 23:27:00,64.2,61.2,29.90,South,172,10.4,10.4,90,0.00,CLR,,0.00,WeatherDisplay:10.37,2013-10-01 04:27:00,
2013-09-30 23:32:00,64.1,61.1,29.90,South,172,9.2,9.2,90,0.00,CLR,,0.00,WeatherDisplay:10.37,2013-10-01 04:32:00,
2013-09-30 23:37:00,64.1,61.1,29.90,South,183,11.5,11.5,90,0.00,CLR,,0.00,WeatherDisplay:10.37,2013-10-01 04:37:00,
2013-09-30 23:42:00,64.1,61.1,29.90,South,178,11.5,11.5,90,0.00,CLR,,0.00,WeatherDisplay:10.37,2013-10-01 04:42:00,
2013-09-30 23:47:00,64.2,61.2,29.90,South,191,10.4,10.4,90,0.00,CLR,,0.00,WeatherDisplay:10.37,2013-10-01 04:47:00,
2013-09-30 23:52:00,64.2,61.2,29.90,SSW,198,15.0,15.0,90,0.00,CLR,,0.00,WeatherDisplay:10.37,2013-10-01 04:52:00,
2013-09-30 23:57:00,64.1,61.1,29.91,South,182,12.7,12.7,90,0.00,CLR,,0.00,WeatherDisplay:10.37,2013-10-01 04:57:00,